Asteria — WDE5489 — position and weather

sailwx.info

Track history (hours):
 
Tides and Currents Weather Stations Pressure Air Temp Water Temp Dewpoint Dewpoint Depression Visibility Wind Speed Wind Dir Waves Ship Positions

Asteria

Owner: Boston HarborCruises, Boston, MA. More information available from US FCC via Universal Licensing System and Coast Guard Vessel Documentation Center.

Last reported at 2017-Feb-24 21:34 UTC. Time now 2017-Feb-24 21:36 UTC.
Position N 42°17' W 070°56'.

Length 33 m; draft 2 m.

Type: High speed craft. MMSI: 367367470.

Date/timePositionNaut miles runAvg speedWind from/ knotsBaromVisibWave heightAir tempDewpointWater temp
2017-Feb-24 21:34N 42°17' W 070°56'2 1.2
2017-Feb-24 20:03N 42°15' W 070°55'0 0.0
2017-Feb-24 19:31N 42°15' W 070°55'0 0.0
2017-Feb-24 18:32N 42°15' W 070°55'8 7.8
2017-Feb-24 17:33N 42°21' W 071°02'1 1.0
2017-Feb-24 16:33N 42°22' W 071°03'0 0.2
2017-Feb-24 15:33N 42°22' W 071°03'4 3.7
2017-Feb-24 14:33N 42°19' W 070°59'4 3.6
2017-Feb-24 13:33N 42°21' W 071°03'8 8.3
2017-Feb-24 12:34N 42°15' W 070°55'8 8.4
2017-Feb-24 11:33N 42°21' W 071°03'8 0.9
2017-Feb-24 02:06N 42°15' W 070°55'815.2
2017-Feb-24 01:34N 42°21' W 071°02'8 8.1
2017-Feb-24 00:33N 42°15' W 070°55'8 8.0
2017-Feb-23 23:34N 42°21' W 071°02'3 2.6
2017-Feb-23 22:34N 42°19' W 070°60'5 0.8
2017-Feb-23 16:25N 42°15' W 070°58'8 9.0
2017-Feb-23 15:33N 42°22' W 071°03'4 3.6
2017-Feb-23 14:33N 42°19' W 070°59'3 3.3
2017-Feb-23 13:33N 42°21' W 071°03'8 8.2
2017-Feb-23 12:34N 42°15' W 070°55'8 8.4
2017-Feb-23 11:33N 42°21' W 071°03'8 8.0
2017-Feb-23 10:33N 42°16' W 070°55'0 0.0
2017-Feb-22 22:34N 42°15' W 070°55'9 9.4
2017-Feb-22 21:34N 42°23' W 071°03'1 1.3
2017-Feb-22 20:33N 42°22' W 071°03'0 0.0
2017-Feb-22 19:34N 42°22' W 071°03'0 0.0
2017-Feb-22 18:34N 42°22' W 071°03'0 0.0
2017-Feb-22 17:34N 42°22' W 071°03'0 0.0
2017-Feb-22 16:34N 42°22' W 071°03'0 0.0
2017-Feb-22 15:33N 42°22' W 071°03'0 0.2
2017-Feb-22 14:33N 42°22' W 071°03'1 0.9
2017-Feb-22 13:34N 42°22' W 071°03'0 0.0
2017-Feb-22 12:33N 42°22' W 071°03'0 0.4
2017-Feb-22 11:33N 42°23' W 071°03'5 0.2
2017-Feb-21 14:06N 42°21' W 070°56'1 2.3
2017-Feb-21 13:34N 42°19' W 070°57'2 0.0
2017-Feb-19 10:34N 42°20' W 070°60'2 0.1
2017-Feb-18 01:33N 42°21' W 071°02'8 8.1
2017-Feb-18 00:34N 42°15' W 070°55'8 8.0
2017-Feb-17 23:34N 42°21' W 071°02'3 3.4
2017-Feb-17 22:33N 42°19' W 070°59'4 4.0
2017-Feb-17 21:33N 42°16' W 070°56'1 0.7
2017-Feb-17 20:33N 42°15' W 070°55'0 0.0
2017-Feb-17 19:33N 42°15' W 070°55'0 0.5
2017-Feb-17 18:34N 42°16' W 070°55'8 7.7
2017-Feb-17 17:33N 42°22' W 071°02'1 0.7
2017-Feb-17 16:33N 42°21' W 071°03'8 8.4
2017-Feb-17 15:34N 42°15' W 070°55'5 4.7
2017-Feb-17 14:34N 42°19' W 070°59'4 3.5
2017-Feb-17 13:34N 42°21' W 071°03'8 8.2
2017-Feb-17 12:33N 42°15' W 070°55'8 8.4
2017-Feb-17 11:33N 42°21' W 071°03'0 0.0
2017-Feb-17 01:33N 42°21' W 071°03'8 8.2
2017-Feb-17 00:33N 42°15' W 070°55'7 7.5
2017-Feb-16 23:34N 42°21' W 071°02'2 2.2
2017-Feb-16 22:33N 42°19' W 070°60'2 2.3
2017-Feb-16 21:34N 42°18' W 070°58'3 3.0
2017-Feb-16 20:34N 42°15' W 070°55'3 2.6
2017-Feb-16 19:34N 42°18' W 070°55'3 2.6
2017-Feb-16 18:34N 42°15' W 070°55'0 0.0
2017-Feb-16 17:34N 42°15' W 070°55'0 0.0
2017-Feb-16 16:33N 42°15' W 070°55'9 8.6
2017-Feb-16 15:33N 42°22' W 071°03'4 3.6
2017-Feb-16 14:34N 42°19' W 070°59'3 3.4
2017-Feb-16 13:33N 42°21' W 071°03'8 8.3
2017-Feb-16 12:33N 42°15' W 070°55'8 8.4
2017-Feb-16 11:33N 42°21' W 071°03'8 8.4
2017-Feb-16 10:33N 42°15' W 070°55'0 0.0
2017-Feb-16 02:06N 42°15' W 070°55'815.1
2017-Feb-16 01:34N 42°21' W 071°03'8 8.3
2017-Feb-16 00:33N 42°15' W 070°55'8 8.0
2017-Feb-15 23:34N 42°21' W 071°02'3 2.5
2017-Feb-15 22:33N 42°19' W 070°60'3 3.2
2017-Feb-15 21:33N 42°22' W 071°03'0 0.0
2017-Feb-15 20:33N 42°22' W 071°03'0 0.0
2017-Feb-15 19:33N 42°22' W 071°03'0 0.0
2017-Feb-15 18:33N 42°22' W 071°03'1 1.3
2017-Feb-15 17:33N 42°23' W 071°03'0 0.0
2017-Feb-15 16:33N 42°23' W 071°03'0 0.0
2017-Feb-15 15:12N 42°23' W 071°03'4 5.9
2017-Feb-15 14:34N 42°20' W 070°60'3 2.6
2017-Feb-15 13:34N 42°21' W 071°03'8 8.3
2017-Feb-15 12:33N 42°15' W 070°55'8 8.4
2017-Feb-15 11:33N 42°21' W 071°03'8 8.4
2017-Feb-15 10:33N 42°15' W 070°55'8 0.9
2017-Feb-15 01:34N 42°21' W 071°02'8 8.1
2017-Feb-15 00:34N 42°15' W 070°55'8 8.0
2017-Feb-14 23:34N 42°21' W 071°02'2 1.9
2017-Feb-14 22:33N 42°20' W 071°00'  
Track history (hours):
 
Tides and Currents Weather Stations Pressure Air Temp Water Temp Dewpoint Dewpoint Depression Visibility Wind Speed Wind Dir Waves Ship Positions

Asteria

Owner: Boston HarborCruises, Boston, MA. More information available from US FCC via Universal Licensing System and Coast Guard Vessel Documentation Center.

Last reported at 2017-Feb-24 21:34 UTC. Time now 2017-Feb-24 21:36 UTC.
Position N 42°17' W 070°56'.

Length 33 m; draft 2 m.

Type: High speed craft. MMSI: 367367470.

Date/timePositionNaut miles runAvg speedWind from/ knotsBaromVisibWave heightAir tempDewpointWater temp
2017-Feb-24 21:34N 42°17' W 070°56'2 1.2
2017-Feb-24 20:03N 42°15' W 070°55'0 0.0
2017-Feb-24 19:31N 42°15' W 070°55'0 0.0
2017-Feb-24 18:32N 42°15' W 070°55'8 7.8
2017-Feb-24 17:33N 42°21' W 071°02'1 1.0
2017-Feb-24 16:33N 42°22' W 071°03'0 0.2
2017-Feb-24 15:33N 42°22' W 071°03'4 3.7
2017-Feb-24 14:33N 42°19' W 070°59'4 3.6
2017-Feb-24 13:33N 42°21' W 071°03'8 8.3
2017-Feb-24 12:34N 42°15' W 070°55'8 8.4
2017-Feb-24 11:33N 42°21' W 071°03'8 0.9
2017-Feb-24 02:06N 42°15' W 070°55'815.2
2017-Feb-24 01:34N 42°21' W 071°02'8 8.1
2017-Feb-24 00:33N 42°15' W 070°55'8 8.0
2017-Feb-23 23:34N 42°21' W 071°02'3 2.6
2017-Feb-23 22:34N 42°19' W 070°60'5 0.8
2017-Feb-23 16:25N 42°15' W 070°58'8 9.0
2017-Feb-23 15:33N 42°22' W 071°03'4 3.6
2017-Feb-23 14:33N 42°19' W 070°59'3 3.3
2017-Feb-23 13:33N 42°21' W 071°03'8 8.2
2017-Feb-23 12:34N 42°15' W 070°55'8 8.4
2017-Feb-23 11:33N 42°21' W 071°03'8 8.0
2017-Feb-23 10:33N 42°16' W 070°55'0 0.0
2017-Feb-22 22:34N 42°15' W 070°55'9 9.4
2017-Feb-22 21:34N 42°23' W 071°03'1 1.3
2017-Feb-22 20:33N 42°22' W 071°03'0 0.0
2017-Feb-22 19:34N 42°22' W 071°03'0 0.0
2017-Feb-22 18:34N 42°22' W 071°03'0 0.0
2017-Feb-22 17:34N 42°22' W 071°03'0 0.0
2017-Feb-22 16:34N 42°22' W 071°03'0 0.0
2017-Feb-22 15:33N 42°22' W 071°03'0 0.2
2017-Feb-22 14:33N 42°22' W 071°03'1 0.9
2017-Feb-22 13:34N 42°22' W 071°03'0 0.0
2017-Feb-22 12:33N 42°22' W 071°03'0 0.4
2017-Feb-22 11:33N 42°23' W 071°03'5 0.2
2017-Feb-21 14:06N 42°21' W 070°56'1 2.3
2017-Feb-21 13:34N 42°19' W 070°57'2 0.0
2017-Feb-19 10:34N 42°20' W 070°60'2 0.1
2017-Feb-18 01:33N 42°21' W 071°02'8 8.1
2017-Feb-18 00:34N 42°15' W 070°55'8 8.0
2017-Feb-17 23:34N 42°21' W 071°02'3 3.4
2017-Feb-17 22:33N 42°19' W 070°59'4 4.0
2017-Feb-17 21:33N 42°16' W 070°56'1 0.7
2017-Feb-17 20:33N 42°15' W 070°55'0 0.0
2017-Feb-17 19:33N 42°15' W 070°55'0 0.5
2017-Feb-17 18:34N 42°16' W 070°55'8 7.7
2017-Feb-17 17:33N 42°22' W 071°02'1 0.7
2017-Feb-17 16:33N 42°21' W 071°03'8 8.4
2017-Feb-17 15:34N 42°15' W 070°55'5 4.7
2017-Feb-17 14:34N 42°19' W 070°59'4 3.5
2017-Feb-17 13:34N 42°21' W 071°03'8 8.2
2017-Feb-17 12:33N 42°15' W 070°55'8 8.4
2017-Feb-17 11:33N 42°21' W 071°03'0 0.0
2017-Feb-17 01:33N 42°21' W 071°03'8 8.2
2017-Feb-17 00:33N 42°15' W 070°55'7 7.5
2017-Feb-16 23:34N 42°21' W 071°02'2 2.2
2017-Feb-16 22:33N 42°19' W 070°60'2 2.3
2017-Feb-16 21:34N 42°18' W 070°58'3 3.0
2017-Feb-16 20:34N 42°15' W 070°55'3 2.6
2017-Feb-16 19:34N 42°18' W 070°55'3 2.6
2017-Feb-16 18:34N 42°15' W 070°55'0 0.0
2017-Feb-16 17:34N 42°15' W 070°55'0 0.0
2017-Feb-16 16:33N 42°15' W 070°55'9 8.6
2017-Feb-16 15:33N 42°22' W 071°03'4 3.6
2017-Feb-16 14:34N 42°19' W 070°59'3 3.4
2017-Feb-16 13:33N 42°21' W 071°03'8 8.3
2017-Feb-16 12:33N 42°15' W 070°55'8 8.4
2017-Feb-16 11:33N 42°21' W 071°03'8 8.4
2017-Feb-16 10:33N 42°15' W 070°55'0 0.0
2017-Feb-16 02:06N 42°15' W 070°55'815.1
2017-Feb-16 01:34N 42°21' W 071°03'8 8.3
2017-Feb-16 00:33N 42°15' W 070°55'8 8.0
2017-Feb-15 23:34N 42°21' W 071°02'3 2.5
2017-Feb-15 22:33N 42°19' W 070°60'3 3.2
2017-Feb-15 21:33N 42°22' W 071°03'0 0.0
2017-Feb-15 20:33N 42°22' W 071°03'0 0.0
2017-Feb-15 19:33N 42°22' W 071°03'0 0.0
2017-Feb-15 18:33N 42°22' W 071°03'1 1.3
2017-Feb-15 17:33N 42°23' W 071°03'0 0.0
2017-Feb-15 16:33N 42°23' W 071°03'0 0.0
2017-Feb-15 15:12N 42°23' W 071°03'4 5.9
2017-Feb-15 14:34N 42°20' W 070°60'3 2.6
2017-Feb-15 13:34N 42°21' W 071°03'8 8.3
2017-Feb-15 12:33N 42°15' W 070°55'8 8.4
2017-Feb-15 11:33N 42°21' W 071°03'8 8.4
2017-Feb-15 10:33N 42°15' W 070°55'8 0.9
2017-Feb-15 01:34N 42°21' W 071°02'8 8.1
2017-Feb-15 00:34N 42°15' W 070°55'8 8.0
2017-Feb-14 23:34N 42°21' W 071°02'2 1.9
2017-Feb-14 22:33N 42°20' W 071°00'  

Dump ship's entire track history